Time;durP1;ratioP1;P1;durP2;ratioP2;P2;SDS_P1;SDS_P2;PMS_P1;PMS_P2;Temp;Humidity;BMP_temperature;BMP_pressure;BME280_temperature;BME280_humidity;BME280_pressure;Samples;Min_cycle;Max_cycle;Signal;HPM_P1;HPM_P2
2024/03/18 00:02:08;;;;;;;10.17;5.87;;;13.40;99.90;;;;;;5013370;28;20172;-64
2024/03/18 00:04:33;;;;;;;7.20;6.10;;;13.40;99.90;;;;;;5017658;28;20270;-64
2024/03/18 00:06:59;;;;;;;9.13;6.50;;;13.40;99.90;;;;;;5016364;28;20185;-64
2024/03/18 00:09:24;;;;;;;8.10;6.23;;;13.40;99.90;;;;;;5019749;28;20264;-64
2024/03/18 00:11:50;;;;;;;8.73;7.17;;;13.40;99.90;;;;;;5011795;28;20195;-64
2024/03/18 00:14:15;;;;;;;9.47;5.50;;;13.30;99.90;;;;;;5017881;28;20208;-65
2024/03/18 00:16:41;;;;;;;9.67;6.43;;;13.30;99.90;;;;;;5016697;28;20204;-65
2024/03/18 00:19:06;;;;;;;8.43;6.63;;;13.30;99.90;;;;;;5013639;28;20181;-65
2024/03/18 00:21:32;;;;;;;9.03;6.83;;;13.30;99.90;;;;;;5017709;28;20272;-65
2024/03/18 00:23:57;;;;;;;10.90;6.03;;;13.30;99.90;;;;;;5012264;28;20492;-63
2024/03/18 00:26:23;;;;;;;8.07;6.40;;;13.30;99.90;;;;;;5012735;28;20296;-64
2024/03/18 00:28:48;;;;;;;7.77;5.77;;;13.20;99.90;;;;;;5019612;28;20220;-63
2024/03/18 00:31:14;;;;;;;6.87;6.10;;;13.20;99.90;;;;;;5018796;28;20211;-64
2024/03/18 00:33:40;;;;;;;11.57;6.30;;;13.20;99.90;;;;;;5017387;28;20219;-64
2024/03/18 00:36:06;;;;;;;9.30;6.43;;;13.20;99.90;;;;;;5015352;28;20489;-64
2024/03/18 00:38:31;;;;;;;8.47;6.17;;;13.10;99.90;;;;;;5018127;28;20201;-64
2024/03/18 00:41:44;;;;;;;8.03;6.63;;;13.10;99.90;;;;;;5015844;28;20598;-64
2024/03/18 00:43:42;;;;;;;7.37;5.80;;;13.10;99.90;;;;;;5010149;28;20189;-64
2024/03/18 00:46:08;;;;;;;8.17;5.80;;;13.10;99.90;;;;;;5015375;28;20963;-64
2024/03/18 00:48:34;;;;;;;8.73;6.87;;;13.10;99.90;;;;;;5015029;28;20754;-64
2024/03/18 00:51:00;;;;;;;7.57;6.50;;;13.10;99.90;;;;;;5014231;28;20576;-64
2024/03/18 00:53:26;;;;;;;10.77;6.40;;;13.10;99.90;;;;;;5016450;28;20415;-64
2024/03/18 00:55:52;;;;;;;7.97;6.20;;;13.10;99.90;;;;;;5010807;28;20487;-64
2024/03/18 00:58:18;;;;;;;10.60;7.50;;;13.10;99.90;;;;;;5015371;28;20902;-63
2024/03/18 01:00:43;;;;;;;7.20;6.37;;;13.10;99.90;;;;;;5008608;28;20189;-64
2024/03/18 01:03:09;;;;;;;6.90;5.80;;;13.10;99.90;;;;;;5020203;28;20182;-64
2024/03/18 01:05:34;;;;;;;9.07;7.03;;;13.10;99.90;;;;;;5012135;28;20208;-64
2024/03/18 01:08:03;;;;;;;6.53;5.90;;;13.10;99.90;;;;;;5014216;28;20225;-64
2024/03/18 01:10:29;;;;;;;11.60;6.87;;;13.20;99.90;;;;;;5013453;28;20189;-64
2024/03/18 01:12:55;;;;;;;10.70;7.00;;;13.20;99.90;;;;;;5015502;28;20550;-64
2024/03/18 01:15:21;;;;;;;9.73;6.60;;;13.20;99.90;;;;;;5013635;28;20220;-64
2024/03/18 01:17:47;;;;;;;12.53;7.37;;;13.20;99.90;;;;;;5015383;28;20911;-64
2024/03/18 01:20:16;;;;;;;9.47;7.00;;;13.20;99.90;;;;;;5011790;28;20482;-64
2024/03/18 01:22:42;;;;;;;6.97;6.17;;;13.20;99.90;;;;;;5012417;28;20420;-64
2024/03/18 01:25:13;;;;;;;7.30;6.00;;;13.30;99.90;;;;;;5014369;28;20464;-64
2024/03/18 01:27:43;;;;;;;10.03;6.83;;;13.30;99.90;;;;;;5011665;28;20415;-64
2024/03/18 01:30:13;;;;;;;10.23;6.43;;;13.30;99.90;;;;;;5011580;28;21075;-64
2024/03/18 01:32:39;;;;;;;8.33;5.87;;;13.20;99.90;;;;;;5008461;28;20439;-64
2024/03/18 01:35:06;;;;;;;12.40;7.10;;;13.20;99.90;;;;;;5014287;28;20884;-64
2024/03/18 01:37:32;;;;;;;11.33;7.20;;;13.30;99.90;;;;;;5011540;28;20513;-63
2024/03/18 01:39:58;;;;;;;8.80;6.30;;;13.30;99.90;;;;;;5009698;28;20416;-63
2024/03/18 01:42:23;;;;;;;15.67;6.40;;;13.30;99.90;;;;;;5010651;28;20574;-63
2024/03/18 01:44:54;;;;;;;7.60;6.23;;;13.30;99.90;;;;;;5011467;28;20193;-63
2024/03/18 01:47:21;;;;;;;6.80;6.03;;;13.30;99.90;;;;;;5010554;28;20174;-63
2024/03/18 01:49:49;;;;;;;6.97;6.03;;;13.30;99.90;;;;;;5009280;28;20428;-63
2024/03/18 01:52:15;;;;;;;7.13;6.33;;;13.30;99.90;;;;;;5013299;28;20948;-63
2024/03/18 01:54:42;;;;;;;8.17;6.50;;;13.30;99.90;;;;;;5012130;28;20493;-63
2024/03/18 01:57:09;;;;;;;9.23;6.37;;;13.30;99.90;;;;;;5014563;28;20473;-63
2024/03/18 01:59:35;;;;;;;10.53;6.50;;;13.30;99.90;;;;;;5014594;28;20764;-63
2024/03/18 02:02:01;;;;;;;7.70;6.70;;;13.30;99.90;;;;;;5007912;28;20444;-63
2024/03/18 02:04:26;;;;;;;11.47;6.83;;;13.30;99.90;;;;;;5013445;28;20235;-63
2024/03/18 02:06:52;;;;;;;8.10;6.27;;;13.30;99.90;;;;;;5015476;28;20442;-63
2024/03/18 02:09:19;;;;;;;10.80;6.90;;;13.30;99.90;;;;;;5012505;28;20188;-63
2024/03/18 02:11:45;;;;;;;8.23;6.07;;;13.30;99.90;;;;;;5013458;28;20187;-63
2024/03/18 02:14:15;;;;;;;12.00;6.80;;;13.30;99.90;;;;;;5015024;28;20489;-63
2024/03/18 02:16:41;;;;;;;11.63;6.37;;;13.30;99.90;;;;;;5016176;28;20478;-63
2024/03/18 02:19:07;;;;;;;15.20;7.50;;;13.30;99.90;;;;;;5009199;28;20887;-62
2024/03/18 02:21:32;;;;;;;7.50;6.17;;;13.30;99.90;;;;;;5013418;28;20259;-63
2024/03/18 02:23:58;;;;;;;10.13;6.90;;;13.30;99.90;;;;;;5012259;28;20510;-62
2024/03/18 02:26:25;;;;;;;8.33;6.47;;;13.30;99.90;;;;;;5013578;28;20204;-63
2024/03/18 02:28:51;;;;;;;8.67;6.50;;;13.30;99.90;;;;;;5011010;28;20280;-63
2024/03/18 02:31:17;;;;;;;8.60;6.80;;;13.30;99.90;;;;;;5005812;28;20476;-63
2024/03/18 02:33:46;;;;;;;7.40;6.53;;;13.30;99.90;;;;;;5011826;28;20427;-63
2024/03/18 02:36:12;;;;;;;8.57;6.90;;;13.30;99.90;;;;;;5015675;28;21016;-63
2024/03/18 02:38:37;;;;;;;7.47;6.50;;;13.30;99.90;;;;;;5019834;28;20415;-63
2024/03/18 02:41:03;;;;;;;7.17;6.47;;;13.30;99.90;;;;;;5005886;28;20176;-63
2024/03/18 02:43:29;;;;;;;8.70;5.80;;;13.30;99.90;;;;;;5011800;28;20192;-63
2024/03/18 02:45:54;;;;;;;6.97;6.27;;;13.30;99.90;;;;;;5013225;28;20493;-63
2024/03/18 02:48:23;;;;;;;8.40;5.63;;;13.30;99.90;;;;;;5014060;28;20240;-63
2024/03/18 02:50:49;;;;;;;8.80;7.10;;;13.30;99.90;;;;;;5016651;28;20550;-63
2024/03/18 02:53:14;;;;;;;9.77;7.10;;;13.30;99.90;;;;;;5010586;28;20432;-63
2024/03/18 02:55:40;;;;;;;6.90;6.13;;;13.30;99.90;;;;;;5016791;28;20212;-63
2024/03/18 02:58:05;;;;;;;8.43;6.20;;;13.30;99.90;;;;;;5017293;28;20220;-63
2024/03/18 03:00:31;;;;;;;8.07;6.70;;;13.30;99.90;;;;;;5015253;28;20238;-63
2024/03/18 03:02:57;;;;;;;8.60;6.53;;;13.30;99.90;;;;;;5013896;28;20223;-62
2024/03/18 03:05:22;;;;;;;10.53;6.50;;;13.30;99.90;;;;;;5014355;28;20597;-63
2024/03/18 03:07:48;;;;;;;7.03;6.03;;;13.30;99.90;;;;;;5013013;28;20188;-63
2024/03/18 03:10:14;;;;;;;8.10;6.40;;;13.30;99.90;;;;;;5007938;28;20276;-63
2024/03/18 03:12:40;;;;;;;7.60;6.07;;;13.30;99.90;;;;;;5009271;28;20304;-63
2024/03/18 03:15:06;;;;;;;6.73;6.13;;;13.30;99.90;;;;;;5009268;28;20220;-63
2024/03/18 03:17:33;;;;;;;9.23;6.30;;;13.30;99.90;;;;;;5012510;28;21016;-63
2024/03/18 03:19:58;;;;;;;10.87;5.63;;;13.30;99.90;;;;;;5011946;28;20441;-63
2024/03/18 03:22:24;;;;;;;8.33;5.97;;;13.30;99.90;;;;;;5009639;28;20942;-63
2024/03/18 03:24:50;;;;;;;8.27;6.37;;;13.30;99.90;;;;;;5011365;28;20202;-63
2024/03/18 03:27:17;;;;;;;7.67;6.23;;;13.30;99.90;;;;;;5017670;28;20535;-63
2024/03/18 03:29:43;;;;;;;6.87;6.13;;;13.30;99.90;;;;;;5008537;28;20539;-63
2024/03/18 03:32:14;;;;;;;9.63;6.50;;;13.30;99.90;;;;;;5008712;28;20189;-63
2024/03/18 03:34:39;;;;;;;8.50;6.33;;;13.30;99.90;;;;;;5014947;28;20447;-63
2024/03/18 03:37:07;;;;;;;7.93;6.27;;;13.40;99.90;;;;;;5013065;28;21036;-63
2024/03/18 03:39:33;;;;;;;8.10;6.53;;;13.40;99.90;;;;;;5016977;28;20184;-63
2024/03/18 03:41:59;;;;;;;7.13;6.40;;;13.40;99.90;;;;;;5016900;28;20435;-63
2024/03/18 03:44:24;;;;;;;6.73;5.57;;;13.40;99.90;;;;;;5011260;28;20549;-64
2024/03/18 03:46:50;;;;;;;7.80;6.33;;;13.40;99.90;;;;;;5018260;28;20250;-64
2024/03/18 03:49:17;;;;;;;7.70;6.17;;;13.40;99.90;;;;;;5013987;28;20203;-64
2024/03/18 03:51:42;;;;;;;9.93;7.37;;;13.40;99.90;;;;;;5021794;28;20477;-64
2024/03/18 03:54:09;;;;;;;9.23;6.87;;;13.40;99.90;;;;;;5007786;28;20459;-64
2024/03/18 03:56:34;;;;;;;8.37;5.87;;;13.40;99.90;;;;;;5019850;28;20204;-64
2024/03/18 03:59:00;;;;;;;6.93;6.17;;;13.40;99.90;;;;;;5017812;28;20482;-64
2024/03/18 04:01:26;;;;;;;7.13;6.40;;;13.40;99.90;;;;;;5015601;28;20285;-63
2024/03/18 04:03:52;;;;;;;7.67;6.80;;;13.40;99.90;;;;;;5016851;28;20895;-64
2024/03/18 04:06:17;;;;;;;6.93;6.23;;;13.40;99.90;;;;;;5013918;28;20268;-63
2024/03/18 04:08:43;;;;;;;7.57;6.67;;;13.40;99.90;;;;;;5015608;28;20180;-64
2024/03/18 04:11:09;;;;;;;6.43;5.50;;;13.40;99.90;;;;;;5010733;28;20239;-64
2024/03/18 04:13:35;;;;;;;7.63;6.70;;;13.40;99.90;;;;;;5014814;28;20192;-64
2024/03/18 04:16:01;;;;;;;7.27;6.20;;;13.40;99.90;;;;;;5017042;28;20474;-64
2024/03/18 04:18:27;;;;;;;6.90;5.60;;;13.40;99.90;;;;;;5012845;28;20189;-64
2024/03/18 04:20:53;;;;;;;7.10;5.70;;;13.40;99.90;;;;;;5015372;28;20424;-64
2024/03/18 04:23:19;;;;;;;6.93;5.93;;;13.40;99.90;;;;;;5018481;28;20291;-64
2024/03/18 04:25:45;;;;;;;7.50;5.90;;;13.40;99.90;;;;;;5019419;28;20443;-64
2024/03/18 04:28:10;;;;;;;8.40;5.93;;;13.40;99.90;;;;;;5019028;28;20481;-64
2024/03/18 04:30:36;;;;;;;7.57;6.20;;;13.40;99.90;;;;;;5019349;28;20568;-64
2024/03/18 04:33:04;;;;;;;6.33;5.53;;;13.40;99.90;;;;;;5016047;28;20191;-64
2024/03/18 04:35:29;;;;;;;7.43;6.13;;;13.40;99.90;;;;;;5010733;28;20471;-64
2024/03/18 04:37:55;;;;;;;8.17;6.53;;;13.40;99.90;;;;;;5018376;28;20506;-64
2024/03/18 04:40:24;;;;;;;8.03;6.80;;;13.50;99.90;;;;;;5015696;28;20704;-64
2024/03/18 04:42:49;;;;;;;8.43;6.37;;;13.40;99.90;;;;;;5015723;28;20477;-64
2024/03/18 04:45:16;;;;;;;7.17;5.60;;;13.40;99.90;;;;;;5015583;28;21023;-64
2024/03/18 04:47:44;;;;;;;9.20;5.63;;;13.40;99.90;;;;;;5017034;28;20195;-64
2024/03/18 04:50:15;;;;;;;10.37;6.07;;;13.40;99.90;;;;;;5017282;28;20810;-64
2024/03/18 04:52:41;;;;;;;8.57;6.37;;;13.40;99.90;;;;;;5012508;28;20436;-64
2024/03/18 04:55:08;;;;;;;7.00;6.03;;;13.40;99.90;;;;;;5013069;28;20439;-64
2024/03/18 04:57:35;;;;;;;8.83;7.07;;;13.40;99.90;;;;;;5019241;28;20452;-64
2024/03/18 05:00:01;;;;;;;8.40;6.03;;;13.40;99.90;;;;;;5009896;28;20649;-64
2024/03/18 05:02:27;;;;;;;9.20;7.20;;;13.30;99.90;;;;;;5013195;28;20956;-64
2024/03/18 05:04:52;;;;;;;10.13;7.90;;;13.30;99.90;;;;;;5012642;28;20952;-64
2024/03/18 05:07:18;;;;;;;10.27;7.83;;;13.30;99.90;;;;;;5011500;28;20439;-64
2024/03/18 05:09:45;;;;;;;10.40;7.83;;;13.30;99.90;;;;;;5012791;28;20184;-64
2024/03/18 05:12:12;;;;;;;9.30;7.23;;;13.30;99.90;;;;;;5011749;28;20189;-64
2024/03/18 05:14:39;;;;;;;10.13;7.20;;;13.20;99.90;;;;;;5012683;28;20571;-64
2024/03/18 05:17:05;;;;;;;10.77;8.07;;;13.20;99.90;;;;;;5012718;28;20842;-64
2024/03/18 05:19:31;;;;;;;7.27;6.57;;;13.30;99.90;;;;;;5012757;28;20495;-64
2024/03/18 05:21:57;;;;;;;8.00;7.10;;;13.20;99.90;;;;;;5014693;28;20977;-64
2024/03/18 05:24:22;;;;;;;9.57;8.00;;;13.20;99.90;;;;;;5011648;28;20498;-64
2024/03/18 05:26:48;;;;;;;11.07;8.77;;;13.30;99.90;;;;;;5018114;28;20185;-64
2024/03/18 05:29:13;;;;;;;8.60;7.70;;;13.20;99.90;;;;;;5010436;28;20181;-64
2024/03/18 05:31:42;;;;;;;9.37;7.87;;;13.20;99.90;;;;;;5014251;28;20204;-64
2024/03/18 05:34:08;;;;;;;9.30;8.30;;;13.20;99.90;;;;;;5018501;28;20212;-65
2024/03/18 05:36:34;;;;;;;11.57;8.40;;;13.10;99.90;;;;;;5019412;28;20995;-64
2024/03/18 05:39:00;;;;;;;10.83;9.07;;;13.20;99.90;;;;;;5011006;28;20436;-64
2024/03/18 05:41:25;;;;;;;10.53;8.40;;;13.20;99.90;;;;;;5020854;28;20188;-64
2024/03/18 05:43:51;;;;;;;10.83;8.77;;;13.20;99.90;;;;;;5015050;28;20213;-64
2024/03/18 05:46:20;;;;;;;12.17;9.07;;;13.20;99.90;;;;;;5014806;28;20180;-64
2024/03/18 05:48:47;;;;;;;12.60;9.07;;;13.10;99.90;;;;;;5016648;28;20864;-64
2024/03/18 05:51:13;;;;;;;9.83;8.83;;;13.10;99.90;;;;;;5012224;28;20415;-64
2024/03/18 05:53:41;;;;;;;11.57;9.43;;;13.10;99.90;;;;;;5009063;28;20427;-64
2024/03/18 05:56:07;;;;;;;11.80;8.70;;;13.10;99.90;;;;;;5011727;28;20237;-64
2024/03/18 05:58:41;;;;;;;14.43;8.40;;;13.10;99.90;;;;;;5014075;28;20492;-64
2024/03/18 06:01:10;;;;;;;9.87;8.83;;;13.10;99.90;;;;;;5011886;28;21017;-64
2024/03/18 06:03:39;;;;;;;11.23;8.40;;;13.10;99.90;;;;;;5017458;28;20443;-64
2024/03/18 06:06:06;;;;;;;11.77;9.07;;;13.10;99.90;;;;;;5014670;28;20412;-64
2024/03/18 06:08:32;;;;;;;12.43;8.40;;;13.10;99.90;;;;;;5012784;28;20435;-64
2024/03/18 06:10:58;;;;;;;13.10;9.10;;;13.10;99.90;;;;;;5012594;28;20460;-64
2024/03/18 06:13:25;;;;;;;9.83;8.63;;;13.10;99.90;;;;;;5013278;28;20474;-64
2024/03/18 06:15:50;;;;;;;9.60;8.57;;;13.10;99.90;;;;;;5015199;28;20240;-64
2024/03/18 06:18:16;;;;;;;10.43;9.37;;;13.10;99.90;;;;;;5012221;28;20489;-64
2024/03/18 06:20:43;;;;;;;14.40;9.30;;;13.10;99.90;;;;;;5015811;28;20177;-64
2024/03/18 06:23:10;;;;;;;11.10;9.20;;;13.10;99.90;;;;;;5012123;28;20183;-64
2024/03/18 06:28:20;;;;;;;10.47;8.87;;;13.20;99.90;;;;;;5016910;28;20458;-64
2024/03/18 06:30:50;;;;;;;9.50;8.30;;;13.20;99.90;;;;;;5013068;28;20935;-64
2024/03/18 06:33:15;;;;;;;11.13;8.87;;;13.20;99.90;;;;;;5008352;28;20223;-64
2024/03/18 06:35:43;;;;;;;10.20;9.20;;;13.20;99.90;;;;;;5008870;28;20431;-64
2024/03/18 06:38:09;;;;;;;13.03;9.00;;;13.20;99.90;;;;;;5007774;28;20419;-64
2024/03/18 06:40:34;;;;;;;11.00;8.10;;;13.30;99.90;;;;;;5009642;28;20416;-64
2024/03/18 06:43:00;;;;;;;9.40;8.10;;;13.30;99.90;;;;;;5016988;28;20219;-64
2024/03/18 06:45:26;;;;;;;13.37;9.00;;;13.30;99.90;;;;;;5008462;28;20205;-64
2024/03/18 06:47:51;;;;;;;8.20;6.93;;;13.20;99.90;;;;;;5014118;28;20173;-64
2024/03/18 06:50:18;;;;;;;8.57;7.63;;;13.20;99.90;;;;;;5011183;28;20478;-64
2024/03/18 06:52:43;;;;;;;9.70;8.23;;;13.30;99.90;;;;;;5008713;28;20179;-64
2024/03/18 06:55:10;;;;;;;10.60;8.90;;;13.20;99.90;;;;;;5010921;28;20435;-63
2024/03/18 06:57:36;;;;;;;12.10;8.37;;;13.30;99.90;;;;;;5010703;28;20212;-64
2024/03/18 07:00:04;;;;;;;12.90;9.20;;;13.20;99.90;;;;;;5019548;28;20422;-64
2024/03/18 07:02:31;;;;;;;8.87;7.97;;;13.10;99.90;;;;;;5022640;28;20559;-64
2024/03/18 07:04:56;;;;;;;12.50;8.80;;;13.10;99.90;;;;;;5023992;28;20435;-64
2024/03/18 07:07:22;;;;;;;11.73;9.47;;;13.10;99.90;;;;;;5019315;28;20436;-64
2024/03/18 07:09:48;;;;;;;21.53;9.77;;;13.10;99.90;;;;;;5012228;28;20686;-64
2024/03/18 07:12:15;;;;;;;14.57;9.00;;;13.10;99.90;;;;;;5019190;28;20172;-64
2024/03/18 07:14:41;;;;;;;13.13;9.70;;;13.20;99.90;;;;;;5013138;28;22511;-64
2024/03/18 07:17:07;;;;;;;10.97;8.70;;;13.20;99.90;;;;;;5014983;28;20486;-64
2024/03/18 07:19:33;;;;;;;13.80;9.07;;;13.30;99.90;;;;;;5016050;28;20435;-64
2024/03/18 07:22:00;;;;;;;8.63;7.73;;;13.30;99.90;;;;;;5013340;28;20276;-64
2024/03/18 07:24:26;;;;;;;10.63;8.30;;;13.30;99.90;;;;;;5017433;28;20253;-63
2024/03/18 07:26:52;;;;;;;13.10;9.23;;;13.30;99.90;;;;;;5021132;28;20413;-63
2024/03/18 07:29:19;;;;;;;13.93;9.30;;;13.30;99.90;;;;;;5027245;28;20945;-63
2024/03/18 07:31:47;;;;;;;16.00;8.90;;;13.30;99.90;;;;;;5026207;28;20189;-63
2024/03/18 07:34:13;;;;;;;10.20;9.13;;;13.30;99.90;;;;;;5019507;28;20431;-63
2024/03/18 07:36:42;;;;;;;15.50;9.80;;;13.30;99.90;;;;;;5015830;28;20559;-63
2024/03/18 07:39:07;;;;;;;10.17;9.03;;;13.30;99.90;;;;;;5016842;28;20172;-63
2024/03/18 07:41:35;;;;;;;16.33;10.23;;;13.30;99.90;;;;;;5014417;28;20928;-63
2024/03/18 07:44:01;;;;;;;15.83;9.57;;;13.30;99.90;;;;;;5012760;28;20200;-64
2024/03/18 07:46:26;;;;;;;11.80;9.83;;;13.20;99.90;;;;;;5012525;28;20435;-64
2024/03/18 07:48:52;;;;;;;12.27;9.10;;;13.30;99.90;;;;;;5013599;28;20181;-63
2024/03/18 07:51:18;;;;;;;10.90;7.93;;;13.30;99.90;;;;;;5020655;28;20215;-64
2024/03/18 07:53:43;;;;;;;12.20;8.07;;;13.20;99.90;;;;;;5017045;28;20291;-64
2024/03/18 07:56:11;;;;;;;10.67;7.17;;;13.30;99.90;;;;;;5016502;28;20212;-64
2024/03/18 07:58:37;;;;;;;11.03;8.10;;;13.30;99.90;;;;;;5011129;28;20169;-64
2024/03/18 08:01:02;;;;;;;11.87;8.43;;;13.30;99.90;;;;;;5014831;28;20433;-66
2024/03/18 08:03:28;;;;;;;8.80;7.60;;;13.30;99.90;;;;;;5015640;28;20602;-65
2024/03/18 08:05:53;;;;;;;8.83;7.03;;;13.30;99.90;;;;;;5018370;28;20290;-65
2024/03/18 08:08:19;;;;;;;8.53;7.60;;;13.30;99.90;;;;;;5008570;28;20200;-65
2024/03/18 08:10:45;;;;;;;12.07;8.53;;;13.30;99.90;;;;;;5012181;28;20552;-65
2024/03/18 08:13:12;;;;;;;9.40;7.80;;;13.30;99.90;;;;;;5009727;28;20822;-65
2024/03/18 08:15:38;;;;;;;13.30;8.50;;;13.30;99.90;;;;;;5009883;28;20874;-65
2024/03/18 08:18:07;;;;;;;8.83;7.93;;;13.30;99.90;;;;;;5013447;28;20421;-66
2024/03/18 08:20:33;;;;;;;9.63;7.70;;;13.40;99.90;;;;;;5007702;28;20187;-67
2024/03/18 08:22:59;;;;;;;11.20;8.00;;;13.40;99.90;;;;;;5025120;28;20414;-66
2024/03/18 08:25:26;;;;;;;10.53;6.60;;;13.50;99.90;;;;;;5020192;28;20220;-66
2024/03/18 08:27:52;;;;;;;8.37;5.80;;;13.50;99.90;;;;;;5020236;28;20181;-66
2024/03/18 08:30:17;;;;;;;11.17;7.77;;;13.40;99.90;;;;;;5019844;28;20944;-65
2024/03/18 08:32:43;;;;;;;10.73;6.50;;;13.50;99.90;;;;;;5020329;28;20276;-66
2024/03/18 08:35:09;;;;;;;9.20;6.03;;;13.50;99.90;;;;;;5015784;28;20212;-66
2024/03/18 08:37:34;;;;;;;13.33;6.23;;;13.60;99.90;;;;;;5021635;28;20605;-66
2024/03/18 08:40:00;;;;;;;8.90;7.70;;;13.60;99.90;;;;;;5013761;28;20272;-66
2024/03/18 08:42:26;;;;;;;8.40;5.67;;;13.70;99.90;;;;;;5019513;28;20205;-66
2024/03/18 08:44:51;;;;;;;7.93;5.43;;;13.60;99.90;;;;;;5019967;28;20239;-66
2024/03/18 08:47:23;;;;;;;11.30;5.50;;;13.60;99.90;;;;;;5014820;28;20267;-67
2024/03/18 08:49:48;;;;;;;9.07;5.30;;;13.60;99.90;;;;;;5012128;28;20177;-66
2024/03/18 08:52:15;;;;;;;7.67;5.70;;;13.60;99.90;;;;;;5015798;28;20443;-66
2024/03/18 08:54:41;;;;;;;8.80;5.00;;;13.60;99.90;;;;;;5012359;28;20200;-66
2024/03/18 08:57:06;;;;;;;11.40;4.67;;;13.60;99.90;;;;;;5009547;28;20456;-66
2024/03/18 08:59:32;;;;;;;17.13;7.00;;;13.50;99.90;;;;;;5018798;28;20432;-66
2024/03/18 09:01:58;;;;;;;8.60;5.73;;;13.50;99.90;;;;;;5017522;28;20190;-66
2024/03/18 09:04:24;;;;;;;6.83;5.30;;;13.50;99.90;;;;;;5016171;28;20200;-66
2024/03/18 09:06:50;;;;;;;6.83;4.70;;;13.40;99.90;;;;;;5021705;28;20176;-66
2024/03/18 09:09:16;;;;;;;8.90;5.03;;;13.40;99.90;;;;;;5036861;28;20987;-66
2024/03/18 09:11:42;;;;;;;13.43;5.10;;;13.50;99.90;;;;;;5018909;28;20427;-66
2024/03/18 09:14:08;;;;;;;8.07;5.33;;;13.50;99.90;;;;;;5010805;28;20193;-67
2024/03/18 09:16:34;;;;;;;8.80;4.90;;;13.50;99.90;;;;;;5013367;28;20467;-66
2024/03/18 09:18:59;;;;;;;12.50;5.57;;;13.50;99.90;;;;;;5013581;28;20680;-66
2024/03/18 09:21:25;;;;;;;5.73;4.77;;;13.40;99.90;;;;;;5019160;28;20220;-66
2024/03/18 09:23:51;;;;;;;12.50;4.50;;;13.40;99.90;;;;;;5016004;28;20609;-66
2024/03/18 09:26:16;;;;;;;12.43;5.73;;;13.40;99.90;;;;;;5019857;28;20351;-65
2024/03/18 09:28:42;;;;;;;5.37;4.40;;;13.30;99.90;;;;;;5016829;28;20700;-65
2024/03/18 09:31:07;;;;;;;9.10;5.20;;;13.40;99.90;;;;;;5010982;28;20188;-65
2024/03/18 09:33:33;;;;;;;8.30;4.70;;;13.40;99.90;;;;;;5009243;28;20186;-66
2024/03/18 09:35:59;;;;;;;6.60;4.50;;;13.50;99.90;;;;;;5016499;28;20208;-66
2024/03/18 09:38:25;;;;;;;11.03;5.10;;;13.60;99.90;;;;;;5010190;28;20180;-66
2024/03/18 09:40:59;;;;;;;8.13;5.23;;;13.60;99.90;;;;;;5017020;28;20539;-66
2024/03/18 09:43:25;;;;;;;9.83;5.50;;;13.50;99.90;;;;;;5015619;28;20195;-66
2024/03/18 09:45:52;;;;;;;8.27;5.40;;;13.60;99.90;;;;;;5010530;28;20485;-66
2024/03/18 09:48:18;;;;;;;9.43;5.27;;;13.60;99.90;;;;;;5014565;28;20420;-68
2024/03/18 09:50:44;;;;;;;14.93;6.57;;;13.60;99.90;;;;;;5009363;28;20439;-66
2024/03/18 09:53:13;;;;;;;8.30;5.70;;;13.60;99.90;;;;;;5012720;28;20438;-65
2024/03/18 09:55:39;;;;;;;6.53;5.77;;;13.70;99.90;;;;;;5012717;28;20201;-66
2024/03/18 09:58:14;;;;;;;8.77;4.93;;;13.70;99.90;;;;;;5016245;28;20470;-65
2024/03/18 10:00:40;;;;;;;9.50;5.70;;;13.60;99.90;;;;;;5014740;28;20176;-65
2024/03/18 10:03:17;;;;;;;6.30;5.43;;;13.70;99.90;;;;;;5010496;28;20414;-65
2024/03/18 10:05:45;;;;;;;7.93;5.27;;;13.60;99.90;;;;;;5013079;28;20700;-65
2024/03/18 10:08:15;;;;;;;7.03;5.47;;;13.60;99.90;;;;;;5013467;28;20492;-66
2024/03/18 10:10:43;;;;;;;13.50;6.40;;;13.60;99.90;;;;;;5013293;28;20452;-67
2024/03/18 10:13:09;;;;;;;10.30;6.27;;;13.70;99.90;;;;;;5009976;28;20897;-66
2024/03/18 10:15:37;;;;;;;8.27;6.40;;;13.70;99.90;;;;;;5006400;28;20514;-66
2024/03/18 10:18:04;;;;;;;7.43;6.33;;;13.60;99.90;;;;;;5007115;28;20578;-66
2024/03/18 10:20:29;;;;;;;12.70;7.20;;;13.70;99.90;;;;;;5011530;28;20426;-66
2024/03/18 10:22:55;;;;;;;10.77;6.00;;;13.70;99.90;;;;;;5007467;28;20802;-66
2024/03/18 10:25:23;;;;;;;9.03;6.43;;;13.70;99.90;;;;;;5014688;28;20197;-66
2024/03/18 10:27:49;;;;;;;8.63;6.40;;;13.60;99.90;;;;;;5013330;28;20177;-66
2024/03/18 10:30:16;;;;;;;7.97;6.03;;;13.60;99.90;;;;;;5005883;28;20755;-65
2024/03/18 10:32:43;;;;;;;9.53;6.97;;;13.60;99.90;;;;;;5015897;28;20172;-67
2024/03/18 10:35:26;;;;;;;10.83;7.13;;;13.70;99.90;;;;;;5016261;28;20458;-66
2024/03/18 10:38:06;;;;;;;10.57;7.67;;;13.70;99.90;;;;;;5012414;28;20459;-66
2024/03/18 10:40:38;;;;;;;9.60;7.23;;;13.70;99.90;;;;;;5013153;28;20428;-66
2024/03/18 10:43:06;;;;;;;10.80;7.30;;;13.60;99.90;;;;;;5017236;28;20410;-67
2024/03/18 10:45:32;;;;;;;8.10;6.50;;;13.60;99.90;;;;;;5016991;28;20455;-67
2024/03/18 10:48:05;;;;;;;9.60;7.50;;;13.70;99.90;;;;;;5013471;28;20439;-67
2024/03/18 10:50:33;;;;;;;8.33;7.53;;;13.70;99.90;;;;;;5016678;28;20427;-67
2024/03/18 10:52:59;;;;;;;11.10;7.97;;;13.70;99.90;;;;;;5013017;28;20435;-67
2024/03/18 10:55:26;;;;;;;9.97;8.47;;;13.70;99.90;;;;;;5012814;28;20449;-67
2024/03/18 10:57:58;;;;;;;9.47;7.80;;;13.70;99.90;;;;;;5009986;28;20459;-66
2024/03/18 11:00:24;;;;;;;9.70;8.17;;;13.70;99.90;;;;;;5010280;28;20439;-66
2024/03/18 11:02:53;;;;;;;9.47;7.77;;;13.80;99.90;;;;;;5012103;28;20443;-66
2024/03/18 11:05:23;;;;;;;12.03;8.57;;;14.00;99.90;;;;;;5014236;28;20446;-66
2024/03/18 11:07:49;;;;;;;14.50;9.00;;;14.10;99.90;;;;;;5009233;28;20435;-66
2024/03/18 11:10:15;;;;;;;11.20;8.47;;;14.10;99.90;;;;;;5015202;28;20420;-66
2024/03/18 11:12:42;;;;;;;10.37;7.60;;;14.00;99.90;;;;;;5010987;28;20651;-65
2024/03/18 11:15:08;;;;;;;16.10;9.20;;;14.00;99.90;;;;;;5011791;28;20455;-66
2024/03/18 11:17:46;;;;;;;16.37;10.20;;;13.90;99.90;;;;;;5013569;28;20671;-66
2024/03/18 11:20:19;;;;;;;14.83;9.57;;;13.80;99.90;;;;;;5013236;28;20440;-66
2024/03/18 11:22:45;;;;;;;13.53;9.93;;;13.90;99.90;;;;;;5012554;28;20494;-66
2024/03/18 11:25:22;;;;;;;16.43;10.70;;;13.90;99.90;;;;;;5011653;28;20442;-66
2024/03/18 11:27:55;;;;;;;10.63;9.47;;;14.00;99.90;;;;;;5011816;28;20462;-66
2024/03/18 11:30:29;;;;;;;11.73;9.60;;;14.00;99.90;;;;;;5009460;28;20686;-66
2024/03/18 11:32:56;;;;;;;14.00;9.87;;;14.10;99.90;;;;;;5016151;28;20416;-66
2024/03/18 11:35:22;;;;;;;18.87;11.13;;;14.10;99.90;;;;;;5012144;28;20456;-66
2024/03/18 11:37:48;;;;;;;16.50;11.07;;;14.10;99.90;;;;;;5011483;28;20463;-67
2024/03/18 11:40:18;;;;;;;18.70;10.97;;;14.20;99.90;;;;;;5012024;28;20833;-67
2024/03/18 11:42:45;;;;;;;17.17;12.37;;;14.20;99.90;;;;;;5011274;28;20229;-67
2024/03/18 11:45:21;;;;;;;16.13;10.97;;;14.20;99.90;;;;;;5020077;28;20524;-66
2024/03/18 11:48:08;;;;;;;20.20;12.90;;;14.20;99.90;;;;;;5016173;28;20453;-66
2024/03/18 11:50:41;;;;;;;17.93;12.03;;;14.20;99.90;;;;;;5024790;28;20434;-66
2024/03/18 11:53:09;;;;;;;17.63;12.83;;;14.30;99.90;;;;;;5009071;28;20418;-66
2024/03/18 11:55:36;;;;;;;18.13;12.53;;;14.40;99.90;;;;;;5015479;28;20488;-66
2024/03/18 11:58:06;;;;;;;21.70;12.83;;;14.50;99.90;;;;;;5014173;28;20468;-67
2024/03/18 12:00:33;;;;;;;18.80;12.33;;;14.60;99.90;;;;;;5018126;28;20412;-66
2024/03/18 12:03:01;;;;;;;25.10;14.50;;;14.70;99.90;;;;;;5016938;28;20418;-66
2024/03/18 12:05:28;;;;;;;18.63;12.90;;;14.60;99.90;;;;;;5019088;28;20450;-69
2024/03/18 12:07:54;;;;;;;18.00;13.90;;;14.70;99.90;;;;;;5016024;28;20430;-67
2024/03/18 12:10:22;;;;;;;18.20;12.47;;;14.80;99.90;;;;;;5018714;28;20407;-66
2024/03/18 12:12:48;;;;;;;16.70;13.30;;;14.80;99.90;;;;;;5020377;28;21037;-67
2024/03/18 12:15:14;;;;;;;16.13;12.43;;;14.90;99.90;;;;;;5021022;28;20428;-67
2024/03/18 12:17:42;;;;;;;23.60;13.33;;;14.90;99.90;;;;;;5017685;28;20521;-67
2024/03/18 12:20:27;;;;;;;19.77;13.20;;;14.90;99.90;;;;;;5015596;28;20177;-66
2024/03/18 12:23:04;;;;;;;20.33;13.33;;;14.90;99.90;;;;;;5013305;28;20415;-66
2024/03/18 12:31:14;;;;;;;20.87;14.53;;;15.30;99.90;;;;;;5016751;28;20492;-66
2024/03/18 12:33:40;;;;;;;26.97;14.90;;;15.30;99.90;;;;;;5016646;28;20921;-66
2024/03/18 12:36:13;;;;;;;23.20;16.87;;;15.40;99.90;;;;;;5022948;28;20471;-66
2024/03/18 12:38:40;;;;;;;18.90;15.40;;;15.40;99.90;;;;;;5017449;28;20590;-66
2024/03/18 12:41:09;;;;;;;21.43;14.50;;;15.50;99.90;;;;;;5011364;28;20428;-66
2024/03/18 12:43:35;;;;;;;15.30;13.63;;;15.60;99.90;;;;;;5018449;28;20426;-66
2024/03/18 12:46:00;;;;;;;19.83;12.60;;;15.90;99.90;;;;;;5018696;28;20416;-66
2024/03/18 12:48:27;;;;;;;18.17;11.53;;;16.10;99.90;;;;;;5015646;28;20942;-66